WetterOnline ( https://www.wetteronline.ch )

Wetter aktuell Sankt Peter-Ording

Aktuelles Wetter: St. Peter-Ording (11m)

6-stündlich | Neueste Meldungen
Ortszeit Temperatur Wetter
Mi, 17.07. 8:00 16.7° C bedeckt
Mi, 17.07. 2:00 16.6° C bewölkt
Di, 16.07. 20:00 18.3° C leichter Regen
Di, 16.07. 14:00 20.8° C bewölkt
Di, 16.07. 8:00 16.7° C Regen
Di, 16.07. 2:00 16.1° C bedeckt
Mo, 15.07. 20:00 18.0° C wolkenlos
Mo, 15.07. 14:00 18.6° C bewölkt
Ortszeit Temperatur Wetter
Mi, 17.07. 12:30 16.7° C bewölkt
Mi, 17.07. 12:20 16.7° C bewölkt
Mi, 17.07. 12:10 17.0° C Sprühregen
Mi, 17.07. 12:00 17.1° C bedeckt
Mi, 17.07. 11:50 17.1° C bedeckt
Mi, 17.07. 11:40 17.1° C bedeckt
Mi, 17.07. 11:30 16.8° C bedeckt
Mi, 17.07. 11:00 16.6° C bewölkt
Mi, 17.07. 10:30 16.6° C bedeckt
Mi, 17.07. 10:00 16.6° C bewölkt
Mi, 17.07. 9:30 16.5° C bedeckt
Ortszeit Relative Feuchte Sichtweite
Mi, 17.07. 8:00 92% 35 km
Mi, 17.07. 2:00 93% 45 km
Di, 16.07. 20:00 83% 22 km
Di, 16.07. 14:00 76% 50 km
Di, 16.07. 8:00 96% 30 km
Di, 16.07. 2:00 89% 30 km
Mo, 15.07. 20:00 71% 50 km
Mo, 15.07. 14:00 77% 30 km
Ortszeit Relative Feuchte Sichtweite
Mi, 17.07. 12:30 93% 24 km
Mi, 17.07. 12:20 93% -
Mi, 17.07. 12:10 94% -
Mi, 17.07. 12:00 94% 26 km
Mi, 17.07. 11:50 94% -
Mi, 17.07. 11:40 93% -
Mi, 17.07. 11:30 94% 25 km
Mi, 17.07. 11:00 95% 6 km
Mi, 17.07. 10:30 93% 26 km
Mi, 17.07. 10:00 91% 24 km
Mi, 17.07. 9:30 90% 30 km
Ortszeit Niederschlagsmenge Niederschlagsart
Mi, 17.07. 8:00 2 l/m2 in 12 Std. Regen
Mi, 17.07. 2:00 1 l/m2 in 6 Std. Regen
Di, 16.07. 20:00 0.4 l/m2 in 12 Std. Regen
Di, 16.07. 14:00 0.3 l/m2 in 6 Std. Regen
Di, 16.07. 8:00 4 l/m2 in 12 Std. Regen
Di, 16.07. 2:00 0.0 l/m2 in 6 Std. -
Mo, 15.07. 20:00 0.0 l/m2 in 12 Std. -
Mo, 15.07. 14:00 0.0 l/m2 in 6 Std. -
Ortszeit Niederschlagsmenge Niederschlagsart
Mi, 17.07. 12:30 <0.05 l/m2 in 30 Min Schnee
Mi, 17.07. 12:20 keine Meldung -
Mi, 17.07. 12:10 keine Meldung -
Mi, 17.07. 12:00 0.0 l/m2 in 1 Std. -
Mi, 17.07. 11:50 keine Meldung -
Mi, 17.07. 11:40 keine Meldung -
Mi, 17.07. 11:30 0.0 l/m2 in 30 Min -
Mi, 17.07. 11:00 <0.05 l/m2 in 1 Std. Regen
Mi, 17.07. 10:30 <0.05 l/m2 in 30 Min Schneeregen
Mi, 17.07. 10:00 <0.05 l/m2 in 1 Std. Regen
Mi, 17.07. 9:30 <0.05 l/m2 in 30 Min Schnee
Ortszeit Stärke Spitze Richtung
km/h Bft. km/h Grad Sektor
Mi, 17.07. 8:00 33 5 44 270° W
Mi, 17.07. 2:00 9 2 28 190° S
Di, 16.07. 20:00 11 2 31 240° SW
Di, 16.07. 14:00 22 4 43 220° SW
Di, 16.07. 8:00 19 3 33 120° SO
Di, 16.07. 2:00 17 3 26 90° O
Mo, 15.07. 20:00 7 2 36 20° N
Mo, 15.07. 14:00 31 5 50 260° W
Ortszeit Stärke Spitze Richtung
km/h Bft. km/h Grad Sektor
Mi, 17.07. 12:30 33 5 44 290° W
Mi, 17.07. 12:20 33 5 - 290° W
Mi, 17.07. 12:10 33 5 - 270° W
Mi, 17.07. 12:00 33 5 54 260° W
Mi, 17.07. 11:50 33 5 - 260° W
Mi, 17.07. 11:40 33 5 - 260° W
Mi, 17.07. 11:30 40 6 54 260° W
Mi, 17.07. 11:00 40 6 54 250° W
Mi, 17.07. 10:30 40 6 54 260° W
Mi, 17.07. 10:00 40 6 50 260° W
Mi, 17.07. 9:30 39 6 50 260° W
Ortszeit Untergrenze Bedeckung Gattung
total tief tief mittel hoch
Mi, 17.07. 8:00 270 m 8/8 8/8 - - -
Mi, 17.07. 2:00 1170 m 8/8 7/8 - - -
Di, 16.07. 20:00 660 m 8/8 8/8 - - -
Di, 16.07. 14:00 1350 m 7/8 7/8 - - -
Di, 16.07. 8:00 720 m 8/8 7/8 - - -
Di, 16.07. 2:00 4200 m 8/8 8/8 - - -
Mo, 15.07. 20:00 - 0/8 0/8 - - -
Mo, 15.07. 14:00 510 m 7/8 7/8 - - -
Ortszeit Bedeckungsgrad in Achtel und Wolkenuntergrenze
Mi, 17.07. 12:30 7(210m)
Mi, 17.07. 12:20 7(210m)
Mi, 17.07. 12:10 8
Mi, 17.07. 12:00 8(210m)
Mi, 17.07. 11:50 8(210m)
Mi, 17.07. 11:40 8
Mi, 17.07. 11:30 7(210m) 8(360m)
Mi, 17.07. 11:00 6(210m) 7(330m) 7(750m)
Mi, 17.07. 10:30 4(240m) 7(510m) 8(780m)
Mi, 17.07. 10:00 2(300m) 7(510m) 7(660m)
Mi, 17.07. 9:30 7(330m) 8(480m)
Ortszeit Luftdruck NN (hPa) Tendenz (hPa in 3 Std.)
Mi, 17.07. 8:00 1013 + 1,9
Mi, 17.07. 2:00 1011 0,0
Di, 16.07. 20:00 1010 + 0,6
Di, 16.07. 14:00 1010 + 1,6
Di, 16.07. 8:00 1008 - 0,6
Di, 16.07. 2:00 1010 - 1,4
Mo, 15.07. 20:00 1012 - 0,8
Mo, 15.07. 14:00 1013 + 1,0
Ortszeit Luftdruck NN (hPa) Tendenz (hPa in 3 Std.)
Mi, 17.07. 12:30 1016 + 1,8
Mi, 17.07. 12:20 1016 keine Meldung
Mi, 17.07. 12:10 1015 keine Meldung
Mi, 17.07. 12:00 1015 + 1,6
Mi, 17.07. 11:50 1015 keine Meldung
Mi, 17.07. 11:40 1015 keine Meldung
Mi, 17.07. 11:30 1015 + 1,7
Mi, 17.07. 11:00 1014 + 1,8
Mi, 17.07. 10:30 1014 + 2,1
Mi, 17.07. 10:00 1014 + 2,2
Mi, 17.07. 9:30 1014 + 2,3
Ortszeit Schneehöhe (cm)
Mi, 17.07. 8:00 0
Mi, 17.07. 2:00 0
Di, 16.07. 20:00 0
Di, 16.07. 14:00 0
Di, 16.07. 8:00 0
Di, 16.07. 2:00 0
Mo, 15.07. 20:00 0
Mo, 15.07. 14:00 0
Ortszeit Schneehöhe (cm)
Mi, 17.07. 12:30 0
Mi, 17.07. 12:20 0
Mi, 17.07. 12:10 -
Mi, 17.07. 12:00 0
Mi, 17.07. 11:50 0
Mi, 17.07. 11:40 -
Mi, 17.07. 11:30 0
Mi, 17.07. 11:00 0
Mi, 17.07. 10:30 0
Mi, 17.07. 10:00 0
Mi, 17.07. 9:30 0
Link zu dieser Seite / Seite empfehlen

Das Wetter in ...